createdAt,value
2022-09-15T00:00:58.278Z,24.06
2022-09-15T00:03:25.215Z,22.95
2022-09-15T00:05:54.320Z,23.52
2022-09-15T00:08:22.763Z,23.83
2022-09-15T00:10:58.543Z,23.80
2022-09-15T00:13:26.055Z,23.31
2022-09-15T00:15:53.351Z,23.41
2022-09-15T00:18:20.602Z,23.70
2022-09-15T00:20:47.491Z,23.60
2022-09-15T00:23:16.208Z,23.31
2022-09-15T00:25:52.106Z,23.62
2022-09-15T00:28:21.441Z,23.79
2022-09-15T00:30:50.892Z,23.69
2022-09-15T00:33:19.044Z,23.92
2022-09-15T00:35:47.958Z,24.00
2022-09-15T00:38:15.884Z,23.83
2022-09-15T00:40:54.452Z,23.88
2022-09-15T00:43:42.644Z,23.93
2022-09-15T00:46:09.929Z,23.86
2022-09-15T00:48:40.432Z,23.71
2022-09-15T00:51:10.220Z,23.23
2022-09-15T00:53:37.849Z,23.33
2022-09-15T00:56:07.097Z,23.37
2022-09-15T00:58:41.462Z,23.39
2022-09-15T01:01:09.148Z,23.22
2022-09-15T01:03:36.782Z,22.62
2022-09-15T01:06:19.311Z,22.80
2022-09-15T01:08:52.367Z,23.20
2022-09-15T01:11:19.764Z,23.04
2022-09-15T01:13:46.678Z,23.17
2022-09-15T01:16:51.277Z,23.01
2022-09-15T01:20:07.020Z,23.13
2022-09-15T01:22:36.558Z,23.02
2022-09-15T01:25:42.383Z,22.61
2022-09-15T01:28:18.078Z,21.42
2022-09-15T01:30:56.283Z,22.03
2022-09-15T01:33:35.368Z,22.60
2022-09-15T01:36:10.774Z,22.55
2022-09-15T01:39:01.065Z,22.37
2022-09-15T01:41:35.041Z,22.55
2022-09-15T01:44:09.143Z,22.68
2022-09-15T01:46:47.257Z,22.70
2022-09-15T01:49:20.676Z,22.91
2022-09-15T01:51:50.772Z,22.92
2022-09-15T01:54:22.296Z,22.52
2022-09-15T01:56:49.196Z,22.73
2022-09-15T01:59:16.444Z,22.84
2022-09-15T02:01:52.472Z,22.33
2022-09-15T02:04:34.064Z,22.48
2022-09-15T02:07:21.162Z,22.62
2022-09-15T02:10:15.173Z,22.85
2022-09-15T02:13:17.198Z,22.92
2022-09-15T02:15:56.110Z,22.49
2022-09-15T02:18:34.766Z,22.33
2022-09-15T02:21:19.166Z,22.51
2022-09-15T02:23:53.522Z,22.77
2022-09-15T02:26:26.685Z,22.93
2022-09-15T02:28:58.117Z,23.10
2022-09-15T02:31:27.766Z,23.06
2022-09-15T02:33:59.232Z,23.07
2022-09-15T02:36:29.011Z,22.71
2022-09-15T02:39:09.226Z,22.18
2022-09-15T02:41:37.300Z,22.28
2022-09-15T02:44:04.528Z,22.05
2022-09-15T02:46:31.323Z,22.30
2022-09-15T02:48:58.087Z,22.40
2022-09-15T02:51:24.861Z,22.48
2022-09-15T02:53:51.727Z,22.57
2022-09-15T02:56:18.686Z,22.47
2022-09-15T02:58:45.381Z,22.29
2022-09-15T03:01:17.502Z,22.31
2022-09-15T03:03:45.462Z,22.30
2022-09-15T03:06:16.589Z,22.50
2022-09-15T03:08:47.356Z,21.97
2022-09-15T03:11:15.470Z,22.34
2022-09-15T03:13:43.337Z,22.40
2022-09-15T03:16:11.575Z,22.32
2022-09-15T03:18:39.946Z,22.36
2022-09-15T03:21:09.845Z,22.07
2022-09-15T03:23:36.891Z,22.19
2022-09-15T03:26:04.301Z,22.40
2022-09-15T03:28:31.590Z,22.24
2022-09-15T03:30:58.345Z,22.17
2022-09-15T03:33:25.943Z,22.37
2022-09-15T03:35:53.464Z,22.05
2022-09-15T03:38:20.459Z,21.17
2022-09-15T03:41:04.509Z,21.11
2022-09-15T03:43:32.376Z,21.75
2022-09-15T03:45:59.833Z,21.99
2022-09-15T03:48:28.419Z,21.92
2022-09-15T03:50:56.415Z,22.00
2022-09-15T03:53:23.367Z,22.06
2022-09-15T03:55:50.475Z,21.77
2022-09-15T03:58:18.572Z,21.95
2022-09-15T04:00:46.518Z,22.02
2022-09-15T04:03:13.922Z,21.72
2022-09-15T04:05:42.141Z,21.64
2022-09-15T04:08:12.002Z,21.58
2022-09-15T04:10:40.220Z,21.78
2022-09-15T04:13:07.132Z,21.59
2022-09-15T04:15:33.878Z,21.58
2022-09-15T04:18:01.024Z,20.97
2022-09-15T04:20:27.794Z,21.17
2022-09-15T04:22:54.765Z,21.12
2022-09-15T04:25:21.442Z,21.02
2022-09-15T04:27:48.236Z,20.90
2022-09-15T04:30:15.303Z,21.12
2022-09-15T04:32:41.991Z,21.28
2022-09-15T04:35:09.392Z,21.47
2022-09-15T04:37:36.113Z,21.64
2022-09-15T04:40:03.520Z,21.82
2022-09-15T04:42:31.127Z,21.76
2022-09-15T04:44:58.141Z,21.95
2022-09-15T04:47:24.917Z,22.07
2022-09-15T04:49:51.749Z,22.25
2022-09-15T04:52:18.740Z,22.52
2022-09-15T04:54:45.589Z,22.40
2022-09-15T04:57:12.450Z,22.47
2022-09-15T04:59:39.185Z,22.50
2022-09-15T05:02:06.089Z,22.32
2022-09-15T05:04:33.092Z,22.29
2022-09-15T05:06:59.749Z,21.77
2022-09-15T05:09:29.455Z,21.54
2022-09-15T05:11:56.703Z,21.98
2022-09-15T05:14:23.624Z,22.00
2022-09-15T05:16:50.401Z,22.06
2022-09-15T05:19:17.177Z,22.10
2022-09-15T05:21:44.066Z,22.14
2022-09-15T05:24:10.811Z,22.04
2022-09-15T05:26:37.691Z,22.20
2022-09-15T05:29:05.456Z,22.52
2022-09-15T05:31:34.008Z,22.64
2022-09-15T05:34:04.412Z,22.70
2022-09-15T05:36:32.199Z,22.69
2022-09-15T05:38:59.428Z,22.67
2022-09-15T05:41:27.468Z,23.09
2022-09-15T05:43:57.069Z,23.13
2022-09-15T05:46:26.278Z,23.45
2022-09-15T05:48:55.183Z,23.20
2022-09-15T05:51:22.309Z,22.89
2022-09-15T05:53:49.123Z,22.49
2022-09-15T05:56:17.354Z,22.92
2022-09-15T05:58:46.389Z,23.23
2022-09-15T06:01:16.621Z,22.44
2022-09-15T06:03:44.249Z,23.62
2022-09-15T06:06:12.236Z,23.95
2022-09-15T06:08:47.030Z,24.07
2022-09-15T06:11:20.569Z,24.24
2022-09-15T06:13:47.741Z,24.16
2022-09-15T06:16:20.005Z,23.94
2022-09-15T06:18:48.588Z,24.31
2022-09-15T06:21:18.643Z,24.36
2022-09-15T06:23:50.522Z,24.43
2022-09-15T06:26:19.397Z,24.30
2022-09-15T06:28:53.460Z,24.23
2022-09-15T06:31:21.050Z,24.42
2022-09-15T06:33:51.421Z,24.47
2022-09-15T06:36:20.164Z,24.76
2022-09-15T06:38:47.713Z,24.08
2022-09-15T06:41:15.539Z,23.70
2022-09-15T06:43:43.337Z,24.60
2022-09-15T06:46:13.132Z,24.39
2022-09-15T06:48:40.844Z,24.40
2022-09-15T06:51:10.847Z,24.90
2022-09-15T06:53:39.192Z,24.78
2022-09-15T06:56:11.923Z,24.73
2022-09-15T06:58:40.871Z,24.95
2022-09-15T07:01:10.410Z,25.22
2022-09-15T07:03:40.453Z,24.96
2022-09-15T07:06:08.193Z,24.61
2022-09-15T07:08:35.315Z,25.35
2022-09-15T07:11:02.086Z,25.75
2022-09-15T07:13:28.968Z,25.77
2022-09-15T07:16:02.212Z,25.86
2022-09-15T07:18:30.083Z,26.03
2022-09-15T07:21:02.128Z,26.02
2022-09-15T07:23:30.476Z,25.71
2022-09-15T07:26:12.438Z,25.88
2022-09-15T07:28:42.394Z,26.01
2022-09-15T07:31:11.689Z,26.42
2022-09-15T07:33:38.967Z,26.39
2022-09-15T07:36:07.516Z,26.61
2022-09-15T07:38:35.703Z,26.25
2022-09-15T07:41:04.289Z,26.84
2022-09-15T07:43:31.358Z,26.91
2022-09-15T07:46:02.355Z,26.82
2022-09-15T07:48:29.816Z,26.81
2022-09-15T07:50:56.848Z,26.86
2022-09-15T07:53:23.502Z,26.48
2022-09-15T07:55:53.850Z,27.11
2022-09-15T07:58:21.225Z,26.73
2022-09-15T08:00:48.055Z,27.15
2022-09-15T08:03:15.944Z,27.31
2022-09-15T08:05:45.657Z,26.76
2022-09-15T08:08:13.240Z,27.16
2022-09-15T08:10:41.382Z,27.32
2022-09-15T08:13:09.057Z,26.99
2022-09-15T08:15:37.670Z,27.99
2022-09-15T08:18:05.755Z,27.64
2022-09-15T08:20:33.719Z,28.16
2022-09-15T08:23:00.809Z,27.90
2022-09-15T08:25:27.938Z,27.93
2022-09-15T08:27:56.480Z,27.97
2022-09-15T08:30:24.650Z,28.44
2022-09-15T08:32:51.452Z,28.88
2022-09-15T08:35:19.378Z,28.98
2022-09-15T08:37:47.049Z,28.45
2022-09-15T08:40:23.577Z,28.40
2022-09-15T08:42:53.248Z,29.16
2022-09-15T08:45:25.948Z,29.40
2022-09-15T08:47:59.964Z,29.06
2022-09-15T08:50:29.985Z,28.96
2022-09-15T08:53:17.115Z,29.41
2022-09-15T08:55:46.928Z,29.51
2022-09-15T08:58:25.584Z,29.54
2022-09-15T09:01:15.339Z,29.90
2022-09-15T09:04:17.551Z,29.22
2022-09-15T09:06:59.845Z,29.61
2022-09-15T09:09:43.810Z,30.28
2022-09-15T09:12:32.302Z,30.47
2022-09-15T09:15:21.048Z,30.15
2022-09-15T09:18:18.326Z,30.18
2022-09-15T09:20:51.512Z,30.31
2022-09-15T09:23:23.925Z,30.44
2022-09-15T09:25:52.224Z,31.07
2022-09-15T09:28:47.585Z,31.41
2022-09-15T09:31:25.602Z,31.17
2022-09-15T09:34:13.500Z,31.18
2022-09-15T09:36:40.501Z,31.23
2022-09-15T09:39:13.596Z,31.10
2022-09-15T09:41:42.178Z,31.15
2022-09-15T09:44:14.762Z,31.71
2022-09-15T09:46:43.554Z,30.77
2022-09-15T09:49:23.100Z,31.21
2022-09-15T09:51:52.320Z,31.41
2022-09-15T09:54:21.714Z,31.58
2022-09-15T09:56:50.292Z,31.99
2022-09-15T09:59:34.641Z,32.22
2022-09-15T10:02:10.928Z,32.79
2022-09-15T10:04:39.938Z,32.35
2022-09-15T10:07:07.359Z,32.36
2022-09-15T10:09:34.918Z,32.83
2022-09-15T10:12:05.907Z,32.76
2022-09-15T10:14:35.647Z,32.92
2022-09-15T10:17:21.928Z,33.00
2022-09-15T10:19:51.070Z,32.85
2022-09-15T10:22:35.928Z,32.88
2022-09-15T10:25:39.478Z,33.29
2022-09-15T10:28:17.738Z,33.33
2022-09-15T10:31:06.991Z,33.73
2022-09-15T10:33:38.795Z,33.62
2022-09-15T10:36:05.851Z,33.64
2022-09-15T10:38:40.157Z,33.57
2022-09-15T10:41:25.120Z,33.75
2022-09-15T10:44:09.793Z,33.47
2022-09-15T10:47:14.763Z,34.01
2022-09-15T10:49:50.257Z,34.24
2022-09-15T10:52:32.404Z,34.05
2022-09-15T10:55:02.199Z,33.63
2022-09-15T10:57:58.099Z,33.86
2022-09-15T11:00:28.088Z,33.91
2022-09-15T11:03:18.948Z,34.64
2022-09-15T11:06:32.884Z,34.33
2022-09-15T11:09:21.623Z,34.16
2022-09-15T11:12:16.911Z,33.70
2022-09-15T11:14:58.867Z,33.99
2022-09-15T11:17:40.992Z,34.47
2022-09-15T11:20:14.149Z,34.73
2022-09-15T11:22:52.929Z,34.47
2022-09-15T11:25:30.292Z,34.61
2022-09-15T11:28:20.079Z,34.66
2022-09-15T11:31:12.266Z,34.72
2022-09-15T11:33:49.943Z,34.73
2022-09-15T11:36:25.209Z,35.18
2022-09-15T11:38:59.873Z,35.20
2022-09-15T11:41:44.147Z,35.73
2022-09-15T11:44:17.165Z,35.83
2022-09-15T11:47:05.286Z,36.07
2022-09-15T11:50:06.104Z,36.20
2022-09-15T11:52:44.919Z,36.38
2022-09-15T11:55:33.289Z,36.43
2022-09-15T11:58:17.351Z,36.47
2022-09-15T12:00:56.110Z,36.92
2022-09-15T12:03:30.886Z,37.07
2022-09-15T12:06:07.647Z,37.10
2022-09-15T12:08:41.890Z,36.74
2022-09-15T12:11:17.657Z,36.57
2022-09-15T12:13:45.595Z,36.60
2022-09-15T12:16:13.014Z,37.17
2022-09-15T12:18:50.348Z,36.97
2022-09-15T12:21:33.976Z,36.68
2022-09-15T12:24:14.766Z,36.85
2022-09-15T12:26:43.443Z,37.39
2022-09-15T12:29:22.392Z,37.26
2022-09-15T12:32:09.823Z,37.76
2022-09-15T12:34:38.540Z,37.98
2022-09-15T12:37:15.276Z,37.93
2022-09-15T12:39:44.561Z,37.55
2022-09-15T12:42:24.771Z,37.81
2022-09-15T12:45:01.015Z,38.26
2022-09-15T12:47:40.685Z,38.47
2022-09-15T12:50:16.534Z,37.94
2022-09-15T12:52:47.315Z,37.62
2022-09-15T12:55:48.738Z,38.04
2022-09-15T12:58:32.609Z,38.90
2022-09-15T13:01:18.847Z,37.44
2022-09-15T13:03:46.227Z,38.29
2022-09-15T13:06:35.144Z,37.81
2022-09-15T13:09:01.806Z,37.11
2022-09-15T13:11:38.455Z,37.50
2022-09-15T13:14:08.121Z,38.18
2022-09-15T13:16:43.984Z,38.12
2022-09-15T13:19:44.308Z,38.64
2022-09-15T13:22:11.111Z,38.72
2022-09-15T13:24:50.214Z,39.01
2022-09-15T13:27:21.247Z,39.82
2022-09-15T13:30:30.199Z,39.13
2022-09-15T13:39:22.995Z,38.09
2022-09-15T13:42:14.340Z,38.89
2022-09-15T13:45:07.935Z,37.75
2022-09-15T13:47:46.409Z,38.74
2022-09-15T13:50:25.356Z,38.79
2022-09-15T13:53:00.815Z,37.94
2022-09-15T13:55:32.796Z,38.31
2022-09-15T14:01:02.253Z,38.04
2022-09-15T14:03:46.590Z,38.38
2022-09-15T14:06:19.515Z,38.06
2022-09-15T14:08:52.530Z,38.12
2022-09-15T14:11:30.696Z,38.66
2022-09-15T14:14:00.555Z,37.63
2022-09-15T14:16:27.905Z,37.41
2022-09-15T14:18:57.773Z,37.68
2022-09-15T14:21:27.334Z,37.67
2022-09-15T14:23:57.966Z,37.75
2022-09-15T14:26:28.115Z,38.36
2022-09-15T14:29:02.161Z,39.12
2022-09-15T14:31:35.103Z,39.52
2022-09-15T14:34:05.351Z,39.41
2022-09-15T14:36:33.896Z,39.38
2022-09-15T14:39:20.705Z,39.63
2022-09-15T14:41:48.856Z,39.54
2022-09-15T14:47:28.231Z,38.91
2022-09-15T14:50:29.104Z,39.27
2022-09-15T14:53:16.305Z,39.15
2022-09-15T14:55:56.624Z,38.31
2022-09-15T14:58:35.536Z,38.33
2022-09-15T15:01:22.183Z,38.45
2022-09-15T15:03:49.216Z,38.77
2022-09-15T15:06:29.846Z,38.08
2022-09-15T15:08:59.860Z,38.24
2022-09-15T15:11:29.103Z,38.03
2022-09-15T15:13:57.148Z,38.46
2022-09-15T15:16:31.073Z,38.63
2022-09-15T15:18:59.007Z,38.47
2022-09-15T15:21:39.051Z,38.47
2022-09-15T15:24:14.979Z,37.98
2022-09-15T15:26:44.216Z,37.98
2022-09-15T15:29:43.892Z,37.94
2022-09-15T15:32:22.501Z,37.43
2022-09-15T15:34:50.751Z,37.16
2022-09-15T15:37:32.138Z,36.72
2022-09-15T15:40:04.478Z,36.89
2022-09-15T15:42:31.391Z,36.72
2022-09-15T15:45:01.494Z,36.63
2022-09-15T15:47:32.185Z,36.93
2022-09-15T15:50:14.541Z,36.68
2022-09-15T15:52:43.551Z,36.36
2022-09-15T15:55:14.383Z,36.67
2022-09-15T15:57:41.068Z,36.55
2022-09-15T16:00:21.253Z,36.41
2022-09-15T16:02:49.582Z,36.38
2022-09-15T16:05:17.185Z,36.33
2022-09-15T16:07:47.379Z,36.45
2022-09-15T16:10:21.175Z,36.44
2022-09-15T16:12:48.119Z,36.38
2022-09-15T16:15:18.084Z,36.53
2022-09-15T16:17:46.948Z,36.14
2022-09-15T16:20:16.230Z,35.90
2022-09-15T16:22:43.524Z,35.66
2022-09-15T16:25:28.767Z,35.63
2022-09-15T16:27:55.864Z,35.79
2022-09-15T16:30:22.635Z,35.50
2022-09-15T16:32:49.595Z,35.26
2022-09-15T16:35:26.476Z,35.25
2022-09-15T16:37:53.432Z,35.11
2022-09-15T16:40:20.260Z,35.04
2022-09-15T16:42:48.027Z,34.98
2022-09-15T16:45:39.718Z,35.05
2022-09-15T16:48:09.179Z,34.92
2022-09-15T16:50:39.886Z,35.12
2022-09-15T16:53:14.603Z,35.19
2022-09-15T16:55:46.177Z,35.02
2022-09-15T16:58:14.508Z,35.02
2022-09-15T17:00:42.548Z,35.27
2022-09-15T17:03:14.665Z,35.18
2022-09-15T17:05:48.521Z,35.27
2022-09-15T17:11:05.029Z,34.72
2022-09-15T17:13:33.771Z,34.61
2022-09-15T17:16:01.473Z,34.29
2022-09-15T17:18:28.616Z,34.03
2022-09-15T17:20:56.310Z,33.60
2022-09-15T17:23:28.636Z,33.94
2022-09-15T17:26:01.174Z,34.02
2022-09-15T17:28:31.116Z,34.19
2022-09-15T17:31:00.470Z,34.20
2022-09-15T17:33:28.723Z,34.01
2022-09-15T17:35:55.776Z,34.01
2022-09-15T17:38:23.204Z,33.81
2022-09-15T17:40:51.428Z,33.30
2022-09-15T17:43:29.601Z,33.17
2022-09-15T17:45:57.061Z,32.70
2022-09-15T17:48:24.750Z,33.18
2022-09-15T17:50:52.370Z,33.04
2022-09-15T17:53:26.619Z,33.21
2022-09-15T17:55:55.481Z,33.38
2022-09-15T17:58:24.032Z,33.04
2022-09-15T18:00:50.923Z,32.70
2022-09-15T18:03:20.934Z,32.88
2022-09-15T18:05:48.285Z,32.70
2022-09-15T18:08:16.878Z,32.47
2022-09-15T18:10:43.978Z,32.53
2022-09-15T18:13:15.239Z,32.67
2022-09-15T18:15:42.926Z,31.93
2022-09-15T18:18:14.892Z,32.30
2022-09-15T18:20:42.311Z,32.21
2022-09-15T18:23:20.277Z,32.22
2022-09-15T18:25:48.254Z,31.86
2022-09-15T18:28:15.689Z,32.11
2022-09-15T18:30:45.244Z,30.95
2022-09-15T18:33:18.299Z,31.24
2022-09-15T18:35:45.241Z,31.28
2022-09-15T18:38:13.187Z,31.20
2022-09-15T18:40:56.080Z,31.47
2022-09-15T18:43:25.291Z,30.95
2022-09-15T18:45:54.754Z,31.45
2022-09-15T18:48:21.707Z,30.97
2022-09-15T18:50:48.459Z,30.44
2022-09-15T18:53:15.363Z,31.09
2022-09-15T18:55:42.593Z,31.24
2022-09-15T18:58:10.700Z,30.71
2022-09-15T19:00:37.684Z,31.05
2022-09-15T19:03:06.891Z,31.24
2022-09-15T19:05:34.297Z,30.61
2022-09-15T19:08:02.264Z,30.83
2022-09-15T19:10:29.379Z,30.89
2022-09-15T19:12:56.369Z,31.20
2022-09-15T19:15:24.292Z,31.28
2022-09-15T19:17:51.372Z,31.44
2022-09-15T19:20:18.366Z,31.14
2022-09-15T19:22:46.077Z,31.29
2022-09-15T19:25:13.540Z,30.88
2022-09-15T19:27:40.474Z,30.76
2022-09-15T19:30:12.306Z,30.96
2022-09-15T19:32:40.485Z,30.94
2022-09-15T19:35:08.662Z,29.74
2022-09-15T19:37:38.109Z,30.70
2022-09-15T19:40:09.468Z,30.75
2022-09-15T19:42:38.655Z,30.55
2022-09-15T19:45:06.760Z,30.59
2022-09-15T19:47:34.713Z,30.09
2022-09-15T19:50:01.789Z,30.00
2022-09-15T19:52:28.812Z,30.80
2022-09-15T19:54:55.551Z,30.80
2022-09-15T19:57:23.261Z,30.47
2022-09-15T19:59:50.268Z,30.15
2022-09-15T20:02:17.424Z,30.39
2022-09-15T20:04:44.865Z,30.92
2022-09-15T20:07:12.644Z,30.88
2022-09-15T20:09:39.428Z,30.98
2022-09-15T20:12:06.506Z,31.00
2022-09-15T20:14:33.252Z,31.02
2022-09-15T20:17:01.286Z,31.26
2022-09-15T20:19:29.597Z,30.98
2022-09-15T20:21:56.518Z,31.26
2022-09-15T20:24:24.118Z,31.45
2022-09-15T20:26:52.523Z,31.60
2022-09-15T20:29:19.970Z,31.26
2022-09-15T20:31:47.999Z,31.02
2022-09-15T20:34:15.206Z,30.44
2022-09-15T20:36:42.395Z,29.98
2022-09-15T20:39:13.282Z,29.34
2022-09-15T20:41:44.877Z,29.20
2022-09-15T20:44:12.098Z,30.15
2022-09-15T20:46:38.889Z,30.23
2022-09-15T20:49:06.940Z,29.95
2022-09-15T20:51:34.306Z,29.73
2022-09-15T20:54:03.410Z,30.03
2022-09-15T20:56:32.240Z,29.15
2022-09-15T20:58:59.975Z,28.96
2022-09-15T21:01:37.591Z,27.99
2022-09-15T21:04:06.616Z,28.09
2022-09-15T21:06:34.043Z,28.94
2022-09-15T21:09:01.118Z,29.30
2022-09-15T21:11:28.827Z,29.23
2022-09-15T21:13:56.801Z,29.35
2022-09-15T21:16:26.332Z,29.56
2022-09-15T21:18:53.961Z,29.63
2022-09-15T21:21:26.736Z,29.41
2022-09-15T21:23:55.564Z,29.41
2022-09-15T21:26:24.987Z,29.03
2022-09-15T21:28:52.859Z,27.93
2022-09-15T21:31:31.284Z,28.33
2022-09-15T21:33:59.300Z,28.90
2022-09-15T21:36:30.786Z,29.30
2022-09-15T21:38:59.220Z,29.33
2022-09-15T21:41:29.773Z,28.77
2022-09-15T21:43:58.332Z,28.70
2022-09-15T21:46:27.849Z,29.12
2022-09-15T21:48:56.549Z,28.86
2022-09-15T21:51:25.153Z,29.09
2022-09-15T21:53:56.686Z,29.30
2022-09-15T21:56:24.347Z,28.98
2022-09-15T21:58:51.274Z,29.14
2022-09-15T22:01:26.031Z,29.11
2022-09-15T22:04:06.729Z,29.01
2022-09-15T22:06:36.304Z,28.88
2022-09-15T22:09:21.394Z,28.23
2022-09-15T22:11:49.094Z,28.67
2022-09-15T22:14:15.776Z,28.79
2022-09-15T22:16:43.463Z,28.23
2022-09-15T22:19:12.514Z,28.43
2022-09-15T22:21:41.915Z,28.58
2022-09-15T22:24:12.048Z,28.68
2022-09-15T22:26:39.920Z,28.48
2022-09-15T22:29:07.647Z,28.53
2022-09-15T22:31:35.097Z,27.46
2022-09-15T22:34:02.324Z,27.49
2022-09-15T22:36:30.890Z,27.80
2022-09-15T22:39:05.304Z,28.41
2022-09-15T22:41:38.474Z,28.15
2022-09-15T22:44:06.848Z,28.41
2022-09-15T22:46:34.248Z,28.41
2022-09-15T22:49:01.389Z,27.85
2022-09-15T22:51:28.443Z,28.50
2022-09-15T22:53:57.087Z,28.80
2022-09-15T22:56:26.383Z,28.34
2022-09-15T22:58:53.673Z,27.89
2022-09-15T23:01:22.937Z,28.35
2022-09-15T23:03:51.498Z,28.45
2022-09-15T23:06:20.103Z,28.30
2022-09-15T23:08:58.278Z,28.58
2022-09-15T23:11:28.882Z,28.60
2022-09-15T23:13:56.374Z,28.22
2022-09-15T23:16:24.697Z,28.12
2022-09-15T23:18:53.160Z,28.24
2022-09-15T23:21:20.737Z,28.03
2022-09-15T23:23:49.270Z,27.33
2022-09-15T23:26:20.657Z,27.31
2022-09-15T23:28:49.560Z,27.98
2022-09-15T23:31:16.906Z,27.88
2022-09-15T23:33:44.194Z,27.84
2022-09-15T23:36:13.384Z,27.83
2022-09-15T23:38:41.529Z,27.87
2022-09-15T23:41:09.294Z,27.59
2022-09-15T23:43:36.589Z,27.58
2022-09-15T23:46:04.365Z,27.26
2022-09-15T23:48:32.560Z,27.50
2022-09-15T23:51:00.187Z,27.06
2022-09-15T23:53:27.385Z,27.19
2022-09-15T23:55:55.375Z,27.29
2022-09-15T23:58:22.169Z,27.07
